Time;durP1;ratioP1;P1;durP2;ratioP2;P2;SDS_P1;SDS_P2;PMS_P1;PMS_P2;Temp;Humidity;BMP_temperature;BMP_pressure;BME280_temperature;BME280_humidity;BME280_pressure;Samples;Min_cycle;Max_cycle;Signal;HPM_P1;HPM_P2
2023/10/05 00:00:27;;;;;;;5.87;1.50;;;;;;;19.36;100.00;102088.06;2055837;28;20548;-60
2023/10/05 00:01:30;;;;;;;3.10;1.87;;;;;;;19.67;100.00;102136.69;2055960;28;20484;-59
2023/10/05 00:02:30;;;;;;;3.07;1.27;;;;;;;19.65;100.00;102131.53;2056444;28;20399;-60
2023/10/05 00:03:31;;;;;;;4.23;1.30;;;;;;;19.42;100.00;102106.69;2057022;28;20997;-60
2023/10/05 00:04:41;;;;;;;2.00;1.30;;;;;;;19.65;100.00;102137.13;2064632;28;20185;-60
2023/10/05 00:05:44;;;;;;;2.50;1.30;;;;;;;19.66;100.00;102135.91;2056623;28;20684;-60
2023/10/05 00:06:45;;;;;;;4.20;1.13;;;;;;;19.69;100.00;102139.81;2048306;28;20429;-60
2023/10/05 00:07:46;;;;;;;4.23;1.43;;;;;;;19.66;100.00;102130.28;2055286;28;20457;-60
2023/10/05 00:08:50;;;;;;;2.63;1.30;;;;;;;19.70;100.00;102135.78;2056322;28;20444;-60
2023/10/05 00:09:51;;;;;;;2.13;1.27;;;;;;;19.72;100.00;102130.47;2056695;28;20186;-60
2023/10/05 00:10:51;;;;;;;2.57;1.20;;;;;;;19.70;100.00;102135.78;2056471;28;21032;-60
2023/10/05 00:11:55;;;;;;;3.17;1.70;;;;;;;19.68;100.00;102136.25;2063858;28;20221;-60
2023/10/05 00:13:00;;;;;;;6.33;1.50;;;;;;;19.65;100.00;102136.38;2063329;28;20177;-60
2023/10/05 00:14:06;;;;;;;3.57;1.33;;;;;;;19.64;100.00;102134.78;2056527;28;20414;-60
2023/10/05 00:16:08;;;;;;;5.27;1.60;;;;;;;19.63;100.00;102136.81;2056573;28;20448;-60
2023/10/05 00:17:08;;;;;;;2.27;1.13;;;;;;;19.62;100.00;102126.81;2056545;28;20221;-60
2023/10/05 00:18:09;;;;;;;3.83;1.10;;;;;;;19.60;100.00;102134.91;2056068;28;20195;-60
2023/10/05 00:19:12;;;;;;;3.60;1.60;;;;;;;19.60;100.00;102134.16;2056624;28;20175;-60
2023/10/05 00:20:24;;;;;;;3.93;1.53;;;;;;;19.61;100.00;102138.53;2056269;28;20525;-60
2023/10/05 00:21:26;;;;;;;2.30;1.20;;;;;;;19.62;100.00;102137.28;2056049;28;20852;-60
2023/10/05 00:22:26;;;;;;;2.87;1.10;;;;;;;19.61;100.00;102125.25;2056585;28;20426;-60
2023/10/05 00:23:27;;;;;;;2.73;1.40;;;;;;;19.48;100.00;102118.13;2056347;28;20438;-60
2023/10/05 00:24:29;;;;;;;3.17;1.27;;;;;;;19.31;100.00;102081.00;2056300;28;20171;-60
2023/10/05 00:25:32;;;;;;;3.70;1.40;;;;;;;19.58;100.00;102140.22;2056552;28;20418;-60
2023/10/05 00:26:34;;;;;;;3.53;1.43;;;;;;;19.31;100.00;102080.22;2058081;28;20488;-60
2023/10/05 00:27:35;;;;;;;1.83;1.20;;;;;;;19.59;100.00;102126.97;2057844;28;20458;-60
2023/10/05 00:28:36;;;;;;;7.37;1.20;;;;;;;19.43;100.00;102102.63;2057988;28;20436;-60
2023/10/05 00:29:41;;;;;;;2.70;1.27;;;;;;;19.32;100.00;102098.63;2057870;28;20950;-60
2023/10/05 00:30:42;;;;;;;2.80;1.23;;;;;;;19.57;100.00;102129.44;2058050;28;20595;-60
2023/10/05 00:31:44;;;;;;;4.53;1.33;;;;;;;19.56;100.00;102131.47;2057867;28;20503;-60
2023/10/05 00:32:49;;;;;;;3.17;1.40;;;;;;;19.48;100.00;102130.16;2061066;28;21000;-60
2023/10/05 00:33:55;;;;;;;3.97;1.23;;;;;;;19.54;100.00;102133.19;2058265;28;21003;-60
2023/10/05 00:35:10;;;;;;;1.50;1.10;;;;;;;19.52;100.00;102121.59;2057748;28;20903;-60
2023/10/05 00:36:13;;;;;;;3.50;1.33;;;;;;;19.51;100.00;102134.88;2057916;28;20475;-60
2023/10/05 00:37:14;;;;;;;9.43;1.30;;;;;;;19.51;100.00;102131.28;2057866;28;20449;-60
2023/10/05 00:38:16;;;;;;;2.13;1.30;;;;;;;19.49;100.00;102133.78;2057983;28;20948;-60
2023/10/05 00:39:20;;;;;;;5.13;1.17;;;;;;;19.22;100.00;102091.38;2057991;28;20182;-60
2023/10/05 00:41:33;;;;;;;4.50;1.33;;;;;;;19.20;100.00;102099.47;2066185;28;20505;-60
2023/10/05 00:42:35;;;;;;;3.17;1.37;;;;;;;19.44;100.00;102137.16;2065976;28;20447;-60
2023/10/05 00:43:35;;;;;;;3.07;1.47;;;;;;;19.44;100.00;102140.75;2066072;28;20206;-60
2023/10/05 00:44:38;;;;;;;1.90;1.13;;;;;;;19.47;100.00;102139.03;2061714;28;20464;-60
2023/10/05 00:45:46;;;;;;;3.70;1.30;;;;;;;19.49;100.00;102142.19;2057924;28;20203;-60
2023/10/05 00:46:50;;;;;;;1.77;1.13;;;;;;;19.31;100.00;102111.13;2049087;29;20477;-60
2023/10/05 00:47:52;;;;;;;3.33;1.30;;;;;;;19.49;100.00;102151.41;2049687;28;20449;-60
2023/10/05 00:50:11;;;;;;;2.87;1.40;;;;;;;19.49;100.00;102147.81;2064060;28;20425;-60
2023/10/05 00:51:23;;;;;;;2.83;1.60;;;;;;;19.50;100.00;102143.75;2057520;28;20418;-60
2023/10/05 00:52:24;;;;;;;3.80;1.20;;;;;;;19.46;100.00;102143.09;2058042;28;20163;-60
2023/10/05 00:53:29;;;;;;;4.37;1.10;;;;;;;19.19;100.00;102103.50;2057847;28;20421;-60
2023/10/05 00:54:32;;;;;;;2.00;1.20;;;;;;;19.44;100.00;102137.16;2050053;29;21003;-60
2023/10/05 00:55:35;;;;;;;4.27;1.43;;;;;;;19.46;100.00;102143.09;2057142;28;20441;-60
2023/10/05 00:56:39;;;;;;;2.67;1.10;;;;;;;19.39;100.00;102146.94;2057738;28;20474;-60
2023/10/05 00:57:39;;;;;;;4.70;1.37;;;;;;;19.39;100.00;102140.56;2057685;28;20442;-60
2023/10/05 00:58:48;;;;;;;3.23;1.20;;;;;;;19.39;100.00;102146.94;2057739;28;20442;-60
2023/10/05 01:00:09;;;;;;;2.67;1.40;;;;;;;19.16;100.00;102112.84;2058123;28;20215;-60
2023/10/05 01:01:26;;;;;;;2.63;1.23;;;;;;;19.29;100.00;102142.50;2057982;28;20454;-60
2023/10/05 01:02:30;;;;;;;1.63;1.03;;;;;;;18.92;100.00;102090.00;2058017;28;20444;-60
2023/10/05 01:03:35;;;;;;;1.87;1.17;;;;;;;19.27;100.00;102144.19;2058125;28;20505;-60
2023/10/05 01:05:55;;;;;;;2.80;1.30;;;;;;;19.28;100.00;102142.94;2058262;28;20454;-60
2023/10/05 01:06:57;;;;;;;2.93;1.47;;;;;;;19.25;100.00;102141.84;2057773;28;20456;-60
2023/10/05 01:08:03;;;;;;;2.00;1.20;;;;;;;19.24;100.00;102140.25;2053635;28;20445;-60
2023/10/05 01:09:12;;;;;;;2.40;1.10;;;;;;;18.89;100.00;102095.75;2053891;28;20453;-60
2023/10/05 01:11:26;;;;;;;2.43;1.30;;;;;;;19.27;100.00;102147.00;2058059;28;20879;-60
2023/10/05 01:12:43;;;;;;;3.40;1.30;;;;;;;19.29;100.00;102139.69;2058241;28;20450;-60
2023/10/05 01:13:43;;;;;;;1.73;1.00;;;;;;;19.27;100.00;102149.81;2058204;28;20465;-60
2023/10/05 01:14:53;;;;;;;2.73;1.40;;;;;;;19.27;100.00;102144.19;2057672;28;20429;-60
2023/10/05 01:15:54;;;;;;;3.33;1.10;;;;;;;19.28;100.00;102146.56;2057307;28;20185;-60
2023/10/05 01:16:55;;;;;;;2.17;1.30;;;;;;;19.28;100.00;102145.75;2057264;28;20458;-60
2023/10/05 01:17:56;;;;;;;3.63;1.00;;;;;;;19.26;100.00;102148.25;2057981;28;20421;-60
2023/10/05 01:18:56;;;;;;;3.30;1.10;;;;;;;19.25;100.00;102147.44;2058295;28;20178;-60
2023/10/05 01:20:08;;;;;;;2.53;1.03;;;;;;;19.25;100.00;102147.44;2058015;28;20476;-60
2023/10/05 01:21:09;;;;;;;2.60;1.30;;;;;;;19.24;100.00;102142.31;2057918;28;20245;-60
2023/10/05 01:22:14;;;;;;;3.37;1.37;;;;;;;19.23;100.00;102137.91;2058188;28;20441;-60
2023/10/05 01:23:15;;;;;;;1.83;1.00;;;;;;;19.22;100.00;102147.59;2058058;28;20518;-60
2023/10/05 01:24:17;;;;;;;4.93;1.40;;;;;;;19.24;100.00;102145.13;2058074;28;21053;-60
2023/10/05 01:25:18;;;;;;;2.97;1.20;;;;;;;19.02;100.00;102113.34;2058113;28;20935;-60
2023/10/05 01:26:20;;;;;;;2.40;1.20;;;;;;;19.23;100.00;102144.31;2057736;28;20452;-60
2023/10/05 01:27:21;;;;;;;3.17;1.33;;;;;;;19.24;100.00;102139.50;2057641;28;20638;-60
2023/10/05 01:28:21;;;;;;;2.27;1.20;;;;;;;19.25;100.00;102138.25;2057766;28;20440;-60
2023/10/05 01:29:22;;;;;;;4.20;1.30;;;;;;;19.24;100.00;102139.50;2057981;28;20423;-60
2023/10/05 01:30:23;;;;;;;2.17;1.30;;;;;;;19.17;100.00;102132.06;2057455;28;20611;-60
2023/10/05 01:31:23;;;;;;;3.47;1.23;;;;;;;19.17;100.00;102126.44;2057653;28;20193;-60
2023/10/05 01:32:25;;;;;;;3.07;1.17;;;;;;;19.21;100.00;102137.56;2062302;28;20201;-60
2023/10/05 01:33:25;;;;;;;3.17;1.20;;;;;;;19.23;100.00;102135.88;2062013;28;20199;-60
2023/10/05 01:34:26;;;;;;;4.43;1.20;;;;;;;19.25;100.00;102135.44;2057767;28;20497;-60
2023/10/05 01:35:27;;;;;;;2.57;1.27;;;;;;;19.24;100.00;102133.88;2057621;28;20167;-60
2023/10/05 01:36:27;;;;;;;3.50;1.60;;;;;;;19.25;100.00;102141.06;2057612;28;20183;-60
2023/10/05 01:37:31;;;;;;;2.80;1.43;;;;;;;19.03;100.00;102103.69;2057616;28;20179;-60
2023/10/05 01:38:37;;;;;;;4.67;1.33;;;;;;;19.24;100.00;102136.69;2049649;28;20699;-60
2023/10/05 01:39:43;;;;;;;2.20;1.20;;;;;;;19.24;100.00;102140.25;2057205;28;20441;-60
2023/10/05 01:40:49;;;;;;;2.80;1.40;;;;;;;18.90;100.00;102091.69;2057438;28;20939;-60
2023/10/05 01:41:49;;;;;;;1.97;1.13;;;;;;;19.19;100.00;102126.00;2057919;28;20430;-60
2023/10/05 01:42:52;;;;;;;2.53;1.30;;;;;;;19.18;100.00;102133.63;2057563;28;20450;-60
2023/10/05 01:43:52;;;;;;;1.93;1.10;;;;;;;19.13;100.00;102128.59;2057791;28;20222;-60
2023/10/05 01:44:52;;;;;;;3.80;1.17;;;;;;;19.13;100.00;102122.97;2057586;28;20442;-60
2023/10/05 01:45:53;;;;;;;1.63;1.17;;;;;;;19.12;100.00;102124.22;2057920;28;20234;-60
2023/10/05 01:46:55;;;;;;;2.23;1.47;;;;;;;19.11;100.00;102131.09;2058141;28;20183;-60
2023/10/05 01:48:12;;;;;;;3.83;1.20;;;;;;;19.09;100.00;102130.72;2058452;28;20234;-60
2023/10/05 01:49:12;;;;;;;1.70;1.00;;;;;;;19.07;100.00;102127.59;2050419;28;20407;-60
2023/10/05 01:50:22;;;;;;;2.27;1.23;;;;;;;18.80;100.00;102090.84;2057951;28;20411;-60
2023/10/05 01:51:25;;;;;;;3.07;1.43;;;;;;;19.05;100.00;102127.28;2057151;28;20181;-60
2023/10/05 01:52:26;;;;;;;4.57;1.60;;;;;;;19.04;100.00;102134.13;2057624;28;20430;-60
2023/10/05 01:53:27;;;;;;;1.87;1.03;;;;;;;19.03;100.00;102134.59;2064845;28;20452;-62
2023/10/05 01:54:28;;;;;;;3.97;1.30;;;;;;;19.01;100.00;102132.25;2057467;28;20453;-61
2023/10/05 01:55:34;;;;;;;2.60;1.30;;;;;;;18.99;100.00;102126.28;2057659;28;20274;-60
2023/10/05 01:56:34;;;;;;;2.73;1.10;;;;;;;18.99;100.00;102131.13;2057724;28;20445;-60
2023/10/05 01:57:37;;;;;;;1.37;0.90;;;;;;;18.94;100.00;102128.88;2057545;28;20441;-60
2023/10/05 01:58:42;;;;;;;2.13;1.07;;;;;;;18.94;100.00;102128.88;2057405;28;20177;-60
2023/10/05 01:59:43;;;;;;;2.37;1.40;;;;;;;18.87;100.00;102129.13;2057758;28;20520;-60
2023/10/05 02:00:44;;;;;;;8.27;1.33;;;;;;;18.72;100.00;102114.00;2057450;28;20426;-60
2023/10/05 02:01:45;;;;;;;2.70;1.07;;;;;;;18.79;100.00;102139.03;2057960;28;20449;-61
2023/10/05 02:02:48;;;;;;;4.23;1.40;;;;;;;18.69;100.00;102123.31;2057625;28;20183;-62
2023/10/05 02:03:54;;;;;;;3.80;1.40;;;;;;;18.50;100.00;102104.72;2057807;28;20429;-62
2023/10/05 02:04:54;;;;;;;3.93;1.40;;;;;;;18.55;100.00;102118.97;2057500;28;20446;-62
2023/10/05 02:06:05;;;;;;;2.17;1.00;;;;;;;18.67;100.00;102137.03;2057760;28;20419;-62
2023/10/05 02:07:05;;;;;;;3.33;1.10;;;;;;;18.61;100.00;102138.81;2057633;28;20191;-62
2023/10/05 02:08:06;;;;;;;2.43;1.27;;;;;;;18.33;100.00;102089.25;2057534;28;20520;-62
2023/10/05 02:09:11;;;;;;;3.13;1.50;;;;;;;18.30;100.00;102096.50;2057660;28;20183;-62
2023/10/05 02:10:13;;;;;;;2.17;1.20;;;;;;;18.53;100.00;102138.28;2057829;28;20237;-62
2023/10/05 02:11:24;;;;;;;4.03;1.57;;;;;;;18.53;100.00;102141.09;2057656;28;20419;-62
2023/10/05 02:12:29;;;;;;;1.80;1.03;;;;;;;18.53;100.00;102141.09;2057547;28;20501;-62
2023/10/05 02:13:33;;;;;;;2.10;1.13;;;;;;;18.49;100.00;102142.44;2057417;28;20391;-62
2023/10/05 02:14:41;;;;;;;5.10;1.40;;;;;;;18.13;100.00;102098.63;2057832;28;20429;-61
2023/10/05 02:15:42;;;;;;;1.30;0.80;;;;;;;18.09;100.00;102097.19;2057885;28;20461;-62
2023/10/05 02:16:49;;;;;;;4.03;1.13;;;;;;;18.39;100.00;102149.19;2057500;28;20426;-62
2023/10/05 02:17:51;;;;;;;3.43;1.37;;;;;;;18.35;100.00;102143.69;2057327;28;20582;-61
2023/10/05 02:18:53;;;;;;;5.13;1.53;;;;;;;18.34;100.00;102153.34;2057376;28;20803;-61
2023/10/05 02:19:54;;;;;;;3.47;1.70;;;;;;;18.32;100.00;102146.59;2057440;28;20466;-62
2023/10/05 02:21:17;;;;;;;1.93;1.20;;;;;;;17.98;100.00;102094.69;2057375;28;20445;-61
2023/10/05 02:22:22;;;;;;;2.53;1.10;;;;;;;18.28;100.00;102146.69;2057380;28;20253;-61
2023/10/05 02:23:25;;;;;;;3.73;1.30;;;;;;;18.23;100.00;102152.88;2064458;28;20460;-61
2023/10/05 02:24:30;;;;;;;2.27;1.47;;;;;;;18.23;100.00;102150.06;2064634;28;20491;-61
2023/10/05 02:25:33;;;;;;;3.87;1.30;;;;;;;18.02;100.00;102125.44;2057233;28;20437;-61
2023/10/05 02:26:34;;;;;;;3.27;1.33;;;;;;;18.21;100.00;102154.56;2056896;28;20545;-61
2023/10/05 02:27:38;;;;;;;2.60;1.23;;;;;;;18.17;100.00;102152.63;2057019;28;20438;-61
2023/10/05 02:28:40;;;;;;;2.93;1.37;;;;;;;18.16;100.00;102149.50;2056889;28;20187;-61
2023/10/05 02:29:42;;;;;;;2.03;0.93;;;;;;;18.13;100.00;102153.97;2057704;28;20450;-61
2023/10/05 02:30:44;;;;;;;4.97;1.60;;;;;;;18.13;100.00;102154.75;2065650;28;20409;-61
2023/10/05 02:33:04;;;;;;;4.17;1.43;;;;;;;18.13;100.00;102151.19;2057335;28;20683;-61
2023/10/05 02:34:07;;;;;;;2.13;1.30;;;;;;;18.13;100.00;102151.19;2057319;28;20450;-61
2023/10/05 02:35:18;;;;;;;2.67;1.33;;;;;;;17.79;100.00;102108.94;2057410;28;20422;-61
2023/10/05 02:36:26;;;;;;;3.53;1.20;;;;;;;18.10;100.00;102152.06;2057409;28;20442;-61
2023/10/05 02:37:32;;;;;;;2.20;1.20;;;;;;;18.11;100.00;102161.28;2057237;28;20445;-61
2023/10/05 02:38:33;;;;;;;2.00;1.30;;;;;;;18.09;100.00;102156.88;2056947;28;20840;-61
2023/10/05 02:39:36;;;;;;;1.77;1.13;;;;;;;18.13;100.00;102159.59;2057037;28;20454;-61
2023/10/05 02:40:45;;;;;;;1.97;1.20;;;;;;;18.04;100.00;102151.81;2056863;28;20625;-61
2023/10/05 02:41:46;;;;;;;1.93;1.17;;;;;;;17.80;100.00;102124.53;2057241;28;20480;-61
2023/10/05 02:42:51;;;;;;;3.63;1.50;;;;;;;17.77;100.00;102117.78;2057266;28;20496;-61
2023/10/05 02:43:52;;;;;;;1.60;1.10;;;;;;;18.08;100.00;102167.78;2057251;28;20179;-61
2023/10/05 02:44:53;;;;;;;3.30;1.80;;;;;;;18.04;100.00;102163.03;2057029;28;20410;-61
2023/10/05 02:45:59;;;;;;;2.03;1.00;;;;;;;17.70;100.00;102120.03;2057203;28;20502;-61
2023/10/05 02:46:59;;;;;;;2.27;1.27;;;;;;;18.01;100.00;102168.00;2057367;28;20225;-61
2023/10/05 02:48:00;;;;;;;1.53;1.03;;;;;;;18.06;100.00;102167.44;2072045;28;20471;-61
2023/10/05 02:49:00;;;;;;;3.60;1.40;;;;;;;18.01;100.00;102168.75;2065388;28;20494;-61
2023/10/05 02:50:01;;;;;;;1.90;1.03;;;;;;;17.72;100.00;102119.59;2057201;28;20703;-61
2023/10/05 02:51:05;;;;;;;4.27;1.30;;;;;;;17.85;100.00;102154.06;2056698;28;20191;-61
2023/10/05 02:52:13;;;;;;;1.67;1.10;;;;;;;17.91;100.00;102171.91;2057367;28;20282;-61
2023/10/05 02:53:17;;;;;;;2.53;1.60;;;;;;;17.91;100.00;102175.47;2056912;28;20796;-61
2023/10/05 02:54:19;;;;;;;2.90;1.50;;;;;;;17.47;100.00;102116.72;2064232;28;20441;-61
2023/10/05 02:55:23;;;;;;;2.60;1.20;;;;;;;17.90;100.00;102173.91;2064490;28;20504;-61
2023/10/05 02:56:33;;;;;;;3.50;1.40;;;;;;;17.90;100.00;102184.38;2056952;28;20478;-61
2023/10/05 02:57:33;;;;;;;3.53;1.30;;;;;;;17.86;100.00;102178.84;2056743;28;20390;-61
2023/10/05 02:58:34;;;;;;;2.23;1.30;;;;;;;17.85;100.00;102182.09;2057225;28;20432;-61
2023/10/05 02:59:35;;;;;;;2.10;1.20;;;;;;;17.86;100.00;102183.66;2057115;28;20706;-61
2023/10/05 03:00:37;;;;;;;3.07;1.80;;;;;;;17.86;100.00;102181.63;2056990;28;20191;-61
2023/10/05 03:01:38;;;;;;;3.60;1.60;;;;;;;17.76;100.00;102171.50;2056916;28;20194;-61
2023/10/05 03:02:45;;;;;;;2.47;1.40;;;;;;;17.81;100.00;102178.59;2056990;28;20920;-61
2023/10/05 03:03:47;;;;;;;2.33;1.47;;;;;;;17.83;100.00;102187.34;2064393;28;20257;-62
2023/10/05 03:04:48;;;;;;;5.23;1.43;;;;;;;17.83;100.00;102190.97;2063928;28;20453;-61
2023/10/05 03:05:49;;;;;;;2.40;1.30;;;;;;;17.78;100.00;102186.66;2056803;28;20422;-61
2023/10/05 03:06:52;;;;;;;2.83;1.50;;;;;;;17.47;100.00;102141.94;2056472;28;20565;-61
2023/10/05 03:07:53;;;;;;;2.17;1.20;;;;;;;17.72;100.00;102187.69;2056014;28;20175;-61
2023/10/05 03:08:57;;;;;;;2.53;1.60;;;;;;;17.69;100.00;102194.16;2056944;28;20939;-61
2023/10/05 03:09:59;;;;;;;2.40;1.47;;;;;;;17.67;100.00;102182.63;2057306;28;20171;-61
2023/10/05 03:10:59;;;;;;;3.53;1.50;;;;;;;17.61;100.00;102192.00;2057030;28;20791;-61
2023/10/05 03:12:00;;;;;;;2.23;1.03;;;;;;;17.52;100.00;102192.66;2057012;28;20460;-61
2023/10/05 03:13:03;;;;;;;3.87;1.30;;;;;;;17.20;100.00;102143.03;2063951;28;20225;-61
2023/10/05 03:14:04;;;;;;;5.37;1.60;;;;;;;17.52;100.00;102189.03;2064096;28;20201;-61
2023/10/05 03:15:07;;;;;;;3.37;1.17;;;;;;;17.42;100.00;102172.06;2056280;28;20877;-61
2023/10/05 03:16:10;;;;;;;2.93;1.30;;;;;;;17.29;100.00;102151.59;2064326;28;20512;-61
2023/10/05 03:17:19;;;;;;;3.93;1.63;;;;;;;17.42;100.00;102190.13;2063400;28;20417;-61
2023/10/05 03:18:20;;;;;;;3.93;1.80;;;;;;;17.55;100.00;102197.34;2050073;28;20408;-61
2023/10/05 03:19:20;;;;;;;3.13;1.23;;;;;;;17.51;100.00;102193.84;2056413;28;20453;-61
2023/10/05 03:20:22;;;;;;;2.57;1.40;;;;;;;17.52;100.00;102189.84;2057058;28;20221;-62
2023/10/05 03:21:22;;;;;;;3.60;1.30;;;;;;;17.52;100.00;102194.66;2056770;28;20195;-61
2023/10/05 03:22:25;;;;;;;2.63;1.50;;;;;;;17.52;100.00;102195.44;2056742;28;20512;-61
2023/10/05 03:23:26;;;;;;;8.70;1.90;;;;;;;17.53;100.00;102194.22;2056955;28;20236;-61
2023/10/05 03:24:28;;;;;;;2.67;1.60;;;;;;;17.52;100.00;102187.81;2057002;28;20450;-61
2023/10/05 03:25:28;;;;;;;4.73;1.30;;;;;;;17.53;100.00;102197.00;2056827;28;20588;-61
2023/10/05 03:26:29;;;;;;;3.50;1.47;;;;;;;17.54;100.00;102190.19;2056923;28;20497;-61
2023/10/05 03:27:30;;;;;;;3.00;1.33;;;;;;;17.57;100.00;102196.91;2056761;28;20182;-61
2023/10/05 03:28:30;;;;;;;2.40;1.43;;;;;;;17.57;100.00;102186.50;2056835;28;20178;-61
2023/10/05 03:29:35;;;;;;;2.33;1.50;;;;;;;17.30;100.00;102155.97;2056824;28;20281;-61
2023/10/05 03:30:35;;;;;;;2.60;1.20;;;;;;;17.57;100.00;102194.09;2057008;28;20186;-61
2023/10/05 03:31:43;;;;;;;3.70;1.60;;;;;;;17.58;100.00;102194.44;2056373;28;20462;-61
2023/10/05 03:32:48;;;;;;;2.93;1.80;;;;;;;17.56;100.00;102200.94;2056677;28;20237;-61
2023/10/05 03:33:51;;;;;;;1.53;1.10;;;;;;;17.58;100.00;102198.47;2056796;28;20815;-61
2023/10/05 03:34:56;;;;;;;2.40;1.40;;;;;;;17.58;100.00;102201.28;2056479;28;20868;-61
2023/10/05 03:35:58;;;;;;;2.00;1.10;;;;;;;17.55;100.00;102196.59;2056897;28;20891;-61
2023/10/05 03:37:07;;;;;;;3.40;1.60;;;;;;;17.39;100.00;102180.59;2054653;28;20513;-61
2023/10/05 03:38:08;;;;;;;1.97;1.27;;;;;;;17.51;100.00;102191.03;2058060;28;20421;-61
2023/10/05 03:39:10;;;;;;;3.20;1.33;;;;;;;17.52;100.00;102191.84;2064055;28;20792;-61
2023/10/05 03:40:24;;;;;;;5.90;1.67;;;;;;;17.52;100.00;102189.03;2056901;28;20533;-61
2023/10/05 03:41:26;;;;;;;2.93;1.33;;;;;;;17.51;100.00;102196.66;2048867;28;20423;-61
2023/10/05 03:42:26;;;;;;;3.97;1.23;;;;;;;17.51;100.00;102196.66;2056464;28;20422;-61
2023/10/05 03:43:27;;;;;;;3.17;1.60;;;;;;;17.51;100.00;102195.88;2056921;28;20411;-61
2023/10/05 03:44:27;;;;;;;2.40;1.40;;;;;;;17.37;100.00;102186.59;2056440;28;20202;-61
2023/10/05 03:45:28;;;;;;;6.33;1.50;;;;;;;17.51;100.00;102199.47;2056983;28;20183;-61
2023/10/05 03:46:29;;;;;;;2.73;1.43;;;;;;;17.50;100.00;102199.91;2056851;28;20674;-61
2023/10/05 03:47:30;;;;;;;3.37;1.70;;;;;;;17.14;100.00;102144.81;2056567;28;20944;-61
2023/10/05 03:48:32;;;;;;;3.03;1.70;;;;;;;17.45;100.00;102192.06;2056202;28;20246;-61
2023/10/05 03:49:33;;;;;;;6.17;1.70;;;;;;;17.50;100.00;102199.91;2056884;28;20838;-61
2023/10/05 03:50:34;;;;;;;3.47;1.43;;;;;;;17.50;100.00;102200.69;2057067;28;20414;-61
2023/10/05 03:51:37;;;;;;;3.73;1.90;;;;;;;17.45;100.00;102187.22;2055047;28;20588;-62
2023/10/05 03:52:37;;;;;;;3.07;1.70;;;;;;;17.51;100.00;102199.47;2054047;28;20187;-60
2023/10/05 03:53:38;;;;;;;4.13;1.63;;;;;;;17.31;100.00;102173.59;2054402;28;20656;-61
2023/10/05 03:54:38;;;;;;;3.60;1.40;;;;;;;17.45;100.00;102201.22;2055184;28;20674;-63
2023/10/05 03:55:39;;;;;;;6.10;1.97;;;;;;;17.28;100.00;102175.25;2056135;28;20205;-60
2023/10/05 03:56:42;;;;;;;2.67;1.47;;;;;;;17.25;100.00;102141.69;2055287;28;20179;-61
2023/10/05 03:57:42;;;;;;;2.13;1.23;;;;;;;18.02;100.00;102212.41;2055634;28;20278;-61
2023/10/05 03:58:45;;;;;;;2.53;1.60;;;;;;;18.24;100.00;102214.13;2056792;28;20430;-61
2023/10/05 03:59:45;;;;;;;3.30;1.60;;;;;;;17.92;100.00;102120.97;2057127;28;20191;-61
2023/10/05 04:00:49;;;;;;;5.10;1.93;;;;;;;18.67;100.00;102219.25;2064057;28;21075;-61
2023/10/05 04:01:51;;;;;;;3.23;1.73;;;;;;;18.66;100.00;102212.06;2063006;28;20268;-62
2023/10/05 04:02:56;;;;;;;6.30;2.10;;;;;;;18.80;100.00;102222.84;2053813;28;20883;-61
2023/10/05 04:03:57;;;;;;;3.33;1.97;;;;;;;19.20;100.00;102226.72;2056813;28;20962;-60
2023/10/05 04:04:58;;;;;;;3.57;2.17;;;;;;;19.46;100.00;102216.22;2056542;28;20827;-62
2023/10/05 04:05:59;;;;;;;5.03;1.50;;;;;;;19.62;100.00;102216.03;2055735;28;20190;-62
2023/10/05 04:06:59;;;;;;;3.70;1.80;;;;;;;19.64;100.00;102214.34;2055282;28;20425;-62
2023/10/05 04:08:12;;;;;;;3.80;1.60;;;;;;;19.76;100.00;102221.16;2062030;28;20182;-62
2023/10/05 04:09:15;;;;;;;2.73;1.83;;;;;;;20.02;100.00;102225.41;2061128;28;20201;-61
2023/10/05 04:10:21;;;;;;;3.47;1.77;;;;;;;19.98;100.00;102217.09;2071781;28;20519;-62
2023/10/05 04:11:21;;;;;;;3.07;1.93;;;;;;;20.17;100.00;102218.78;2070775;28;20408;-61
2023/10/05 04:12:22;;;;;;;3.67;1.67;;;;;;;20.34;100.00;102222.97;2056592;28;20466;-60
2023/10/05 04:13:24;;;;;;;4.07;1.90;;;;;;;20.03;100.00;102168.66;2056363;28;20607;-60
2023/10/05 04:14:26;;;;;;;2.97;1.77;;;;;;;20.45;100.00;102217.69;2056676;28;20186;-61
2023/10/05 04:15:26;;;;;;;4.80;1.83;;;;;;;20.60;100.00;102218.69;2056926;28;20487;-61
2023/10/05 04:16:33;;;;;;;6.70;1.80;;;;;;;20.67;100.00;102226.84;2056621;28;20465;-60
2023/10/05 04:17:33;;;;;;;2.33;1.57;;;;;;;20.67;100.00;102224.03;2061391;28;20181;-62
2023/10/05 04:18:34;;;;;;;4.00;1.60;;;;;;;20.69;100.00;102212.31;2060844;28;20460;-63
2023/10/05 04:19:34;;;;;;;4.10;2.07;;;;;;;20.57;100.00;102185.81;2054818;28;20650;-63
2023/10/05 04:20:35;;;;;;;4.90;2.00;;;;;;;20.74;100.00;102198.41;2055465;28;20190;-62
2023/10/05 04:21:36;;;;;;;3.23;1.90;;;;;;;20.92;100.00;102208.97;2055251;28;20522;-61
2023/10/05 04:22:38;;;;;;;3.40;1.60;;;;;;;20.92;100.00;102203.31;2054955;28;20187;-64
2023/10/05 04:23:40;;;;;;;2.97;1.43;;;;;;;20.61;100.00;102149.06;2055536;28;20281;-61
2023/10/05 04:24:41;;;;;;;2.37;1.50;;;;;;;21.05;100.00;102216.06;2055656;28;20525;-62
2023/10/05 04:25:44;;;;;;;3.13;1.57;;;;;;;21.07;100.00;102215.56;2062307;28;20457;-61
2023/10/05 04:26:45;;;;;;;4.07;2.00;;;;;;;21.11;100.00;102214.19;2062426;28;20186;-62
2023/10/05 04:27:48;;;;;;;6.27;2.13;;;;;;;21.15;100.00;102219.66;2054702;28;20193;-65
2023/10/05 04:28:52;;;;;;;2.97;1.70;;;;;;;20.86;100.00;102172.16;2055827;28;20182;-62
2023/10/05 04:29:53;;;;;;;2.40;1.50;;;;;;;21.09;100.00;102225.13;2056043;28;20269;-62
2023/10/05 04:30:53;;;;;;;3.80;1.80;;;;;;;20.98;100.00;102218.41;2056019;28;20180;-61
2023/10/05 04:31:54;;;;;;;5.93;1.93;;;;;;;21.03;100.00;102223.41;2055796;28;20266;-63
2023/10/05 04:32:54;;;;;;;4.20;1.60;;;;;;;20.69;100.00;102164.41;2059790;28;20222;-63
2023/10/05 04:33:56;;;;;;;5.00;1.80;;;;;;;21.13;100.00;102225.78;2062223;28;20636;-64
2023/10/05 04:34:56;;;;;;;6.60;1.63;;;;;;;21.12;100.00;102223.41;2049704;28;20628;-63
2023/10/05 04:35:57;;;;;;;5.70;2.27;;;;;;;21.19;100.00;102223.13;2053780;28;20187;-61
2023/10/05 04:36:58;;;;;;;5.83;2.03;;;;;;;20.99;100.00;102206.63;2054419;28;20189;-61
2023/10/05 04:38:00;;;;;;;6.77;2.27;;;;;;;21.03;100.00;102226.22;2054988;28;20194;-61
2023/10/05 04:39:01;;;;;;;5.60;2.17;;;;;;;20.88;100.00;102222.41;2052458;28;20638;-60
2023/10/05 04:40:07;;;;;;;7.93;2.70;;;;;;;20.78;100.00;102227.22;2054030;28;20529;-60
2023/10/05 04:41:07;;;;;;;5.30;2.63;;;;;;;20.69;100.00;102227.19;2054462;28;20340;-60
2023/10/05 04:42:11;;;;;;;4.47;2.30;;;;;;;20.59;100.00;102233.25;2054502;28;20592;-61
2023/10/05 04:43:12;;;;;;;8.27;3.20;;;;;;;20.45;100.00;102219.72;2061185;28;20252;-61
2023/10/05 04:44:13;;;;;;;3.77;2.40;;;;;;;19.88;100.00;102159.19;2053760;28;21020;-61
2023/10/05 04:45:14;;;;;;;4.30;2.50;;;;;;;20.29;100.00;102242.47;2054287;28;20754;-60
2023/10/05 04:46:17;;;;;;;5.10;1.77;;;;;;;20.22;100.00;102245.56;2051277;28;20359;-61
2023/10/05 04:47:18;;;;;;;9.17;3.07;;;;;;;20.10;100.00;102240.78;2047231;28;20222;-60
2023/10/05 04:48:19;;;;;;;4.23;2.27;;;;;;;20.00;100.00;102239.91;2054332;28;20183;-61
2023/10/05 04:49:20;;;;;;;6.53;3.20;;;;;;;19.84;100.00;102233.69;2053962;28;20188;-60
2023/10/05 04:50:20;;;;;;;5.53;3.80;;;;;;;19.85;100.00;102240.91;2053788;28;20233;-60
2023/10/05 04:51:35;;;;;;;11.53;4.27;;;;;;;19.75;100.00;102247.72;2053989;28;20748;-60
2023/10/05 04:52:35;;;;;;;5.27;2.73;;;;;;;19.56;100.00;102243.16;2052350;28;20199;-61
2023/10/05 04:53:38;;;;;;;4.77;2.33;;;;;;;19.59;100.00;102251.47;2047496;28;20536;-61
2023/10/05 04:54:40;;;;;;;4.57;1.97;;;;;;;19.44;100.00;102241.97;2048856;28;20187;-60
2023/10/05 04:55:42;;;;;;;3.80;1.90;;;;;;;19.07;100.00;102219.53;2044786;28;20465;-61
2023/10/05 04:57:50;;;;;;;8.57;3.87;;;;;;;19.07;100.00;102247.63;2040825;28;20949;-60